sensor_id;sensor_type;location;lat;lon;timestamp;P1;durP1;ratioP1;P2;durP2;ratioP2
16654;SDS011;8441;51.344;7.022;2022-09-11T00:00:42;0.10;;;0.10;;
16654;SDS011;8441;51.344;7.022;2022-09-11T00:03:10;0.20;;;0.20;;
16654;SDS011;8441;51.344;7.022;2022-09-11T00:05:37;0.10;;;0.10;;
16654;SDS011;8441;51.344;7.022;2022-09-11T00:08:05;0.10;;;0.10;;
16654;SDS011;8441;51.344;7.022;2022-09-11T00:10:33;0.13;;;0.13;;
16654;SDS011;8441;51.344;7.022;2022-09-11T00:13:04;0.10;;;0.10;;
16654;SDS011;8441;51.344;7.022;2022-09-11T00:15:34;0.20;;;0.20;;
16654;SDS011;8441;51.344;7.022;2022-09-11T00:18:04;0.00;;;0.00;;
16654;SDS011;8441;51.344;7.022;2022-09-11T00:20:32;0.20;;;0.20;;
16654;SDS011;8441;51.344;7.022;2022-09-11T00:23:00;0.10;;;0.10;;
16654;SDS011;8441;51.344;7.022;2022-09-11T00:25:29;0.10;;;0.10;;
16654;SDS011;8441;51.344;7.022;2022-09-11T00:27:58;0.10;;;0.10;;
16654;SDS011;8441;51.344;7.022;2022-09-11T00:30:25;0.63;;;0.63;;
16654;SDS011;8441;51.344;7.022;2022-09-11T00:32:52;0.20;;;0.20;;
16654;SDS011;8441;51.344;7.022;2022-09-11T00:35:21;0.10;;;0.10;;
16654;SDS011;8441;51.344;7.022;2022-09-11T00:37:48;0.30;;;0.30;;
16654;SDS011;8441;51.344;7.022;2022-09-11T00:40:16;0.10;;;0.10;;
16654;SDS011;8441;51.344;7.022;2022-09-11T00:42:44;0.20;;;0.20;;
16654;SDS011;8441;51.344;7.022;2022-09-11T00:45:19;0.20;;;0.20;;
16654;SDS011;8441;51.344;7.022;2022-09-11T00:47:49;0.10;;;0.10;;
16654;SDS011;8441;51.344;7.022;2022-09-11T00:50:19;0.20;;;0.20;;
16654;SDS011;8441;51.344;7.022;2022-09-11T00:52:52;0.10;;;0.10;;
16654;SDS011;8441;51.344;7.022;2022-09-11T00:55:24;0.15;;;0.15;;
16654;SDS011;8441;51.344;7.022;2022-09-11T00:57:53;0.10;;;0.10;;
16654;SDS011;8441;51.344;7.022;2022-09-11T01:00:24;0.10;;;0.10;;
16654;SDS011;8441;51.344;7.022;2022-09-11T01:02:52;0.20;;;0.20;;
16654;SDS011;8441;51.344;7.022;2022-09-11T01:05:19;0.10;;;0.10;;
16654;SDS011;8441;51.344;7.022;2022-09-11T01:07:50;0.15;;;0.15;;
16654;SDS011;8441;51.344;7.022;2022-09-11T01:10:19;0.10;;;0.10;;
16654;SDS011;8441;51.344;7.022;2022-09-11T01:12:51;0.20;;;0.20;;
16654;SDS011;8441;51.344;7.022;2022-09-11T01:15:28;0.20;;;0.20;;
16654;SDS011;8441;51.344;7.022;2022-09-11T01:18:02;0.20;;;0.20;;
16654;SDS011;8441;51.344;7.022;2022-09-11T01:20:44;0.20;;;0.20;;
16654;SDS011;8441;51.344;7.022;2022-09-11T01:23:28;0.10;;;0.10;;
16654;SDS011;8441;51.344;7.022;2022-09-11T01:26:15;0.17;;;0.17;;
16654;SDS011;8441;51.344;7.022;2022-09-11T01:29:03;0.20;;;0.20;;
16654;SDS011;8441;51.344;7.022;2022-09-11T01:31:35;0.10;;;0.10;;
16654;SDS011;8441;51.344;7.022;2022-09-11T01:34:12;0.10;;;0.10;;
16654;SDS011;8441;51.344;7.022;2022-09-11T01:36:45;0.40;;;0.40;;
16654;SDS011;8441;51.344;7.022;2022-09-11T01:39:18;0.30;;;0.30;;
16654;SDS011;8441;51.344;7.022;2022-09-11T01:41:49;0.22;;;0.22;;
16654;SDS011;8441;51.344;7.022;2022-09-11T01:44:23;0.10;;;0.10;;
16654;SDS011;8441;51.344;7.022;2022-09-11T01:46:55;0.10;;;0.10;;
16654;SDS011;8441;51.344;7.022;2022-09-11T01:49:24;0.10;;;0.10;;
16654;SDS011;8441;51.344;7.022;2022-09-11T01:51:58;0.10;;;0.10;;
16654;SDS011;8441;51.344;7.022;2022-09-11T01:54:28;0.20;;;0.20;;
16654;SDS011;8441;51.344;7.022;2022-09-11T01:56:59;0.10;;;0.10;;
16654;SDS011;8441;51.344;7.022;2022-09-11T01:59:33;0.22;;;0.22;;
16654;SDS011;8441;51.344;7.022;2022-09-11T02:02:06;0.20;;;0.20;;
16654;SDS011;8441;51.344;7.022;2022-09-11T02:04:37;0.20;;;0.20;;
16654;SDS011;8441;51.344;7.022;2022-09-11T02:07:09;0.20;;;0.20;;
16654;SDS011;8441;51.344;7.022;2022-09-11T02:09:43;0.30;;;0.30;;
16654;SDS011;8441;51.344;7.022;2022-09-11T02:12:18;0.13;;;0.13;;
16654;SDS011;8441;51.344;7.022;2022-09-11T02:14:50;0.30;;;0.30;;
16654;SDS011;8441;51.344;7.022;2022-09-11T02:17:21;0.10;;;0.10;;
16654;SDS011;8441;51.344;7.022;2022-09-11T02:19:52;0.10;;;0.10;;
16654;SDS011;8441;51.344;7.022;2022-09-11T02:22:22;0.30;;;0.30;;
16654;SDS011;8441;51.344;7.022;2022-09-11T02:24:49;0.20;;;0.20;;
16654;SDS011;8441;51.344;7.022;2022-09-11T02:27:17;0.17;;;0.17;;
16654;SDS011;8441;51.344;7.022;2022-09-11T02:29:47;0.10;;;0.10;;
16654;SDS011;8441;51.344;7.022;2022-09-11T02:32:15;0.10;;;0.10;;
16654;SDS011;8441;51.344;7.022;2022-09-11T02:34:43;0.20;;;0.20;;
16654;SDS011;8441;51.344;7.022;2022-09-11T02:37:14;0.10;;;0.10;;
16654;SDS011;8441;51.344;7.022;2022-09-11T02:40:08;0.10;;;0.10;;
16654;SDS011;8441;51.344;7.022;2022-09-11T02:43:09;0.10;;;0.10;;
16654;SDS011;8441;51.344;7.022;2022-09-11T02:45:51;0.10;;;0.10;;
16654;SDS011;8441;51.344;7.022;2022-09-11T02:48:35;0.20;;;0.20;;
16654;SDS011;8441;51.344;7.022;2022-09-11T02:51:14;0.10;;;0.10;;
16654;SDS011;8441;51.344;7.022;2022-09-11T02:53:52;0.10;;;0.10;;
16654;SDS011;8441;51.344;7.022;2022-09-11T02:56:30;0.10;;;0.10;;
16654;SDS011;8441;51.344;7.022;2022-09-11T02:59:06;0.10;;;0.10;;
16654;SDS011;8441;51.344;7.022;2022-09-11T03:01:46;0.10;;;0.10;;
16654;SDS011;8441;51.344;7.022;2022-09-11T03:04:15;0.10;;;0.10;;
16654;SDS011;8441;51.344;7.022;2022-09-11T03:06:44;0.10;;;0.10;;
16654;SDS011;8441;51.344;7.022;2022-09-11T03:09:12;0.10;;;0.10;;
16654;SDS011;8441;51.344;7.022;2022-09-11T03:11:39;0.03;;;0.03;;
16654;SDS011;8441;51.344;7.022;2022-09-11T03:14:07;0.10;;;0.10;;
16654;SDS011;8441;51.344;7.022;2022-09-11T03:16:34;0.10;;;0.10;;
16654;SDS011;8441;51.344;7.022;2022-09-11T03:19:02;0.10;;;0.10;;
16654;SDS011;8441;51.344;7.022;2022-09-11T03:21:30;0.15;;;0.15;;
16654;SDS011;8441;51.344;7.022;2022-09-11T03:23:59;0.10;;;0.10;;
16654;SDS011;8441;51.344;7.022;2022-09-11T03:26:27;0.10;;;0.10;;
16654;SDS011;8441;51.344;7.022;2022-09-11T03:28:55;0.10;;;0.10;;
16654;SDS011;8441;51.344;7.022;2022-09-11T03:31:22;0.10;;;0.10;;
16654;SDS011;8441;51.344;7.022;2022-09-11T03:33:49;0.10;;;0.10;;
16654;SDS011;8441;51.344;7.022;2022-09-11T03:36:16;0.00;;;0.00;;
16654;SDS011;8441;51.344;7.022;2022-09-11T03:38:46;0.10;;;0.10;;
16654;SDS011;8441;51.344;7.022;2022-09-11T03:41:13;0.10;;;0.10;;
16654;SDS011;8441;51.344;7.022;2022-09-11T03:43:41;0.10;;;0.10;;
16654;SDS011;8441;51.344;7.022;2022-09-11T03:46:08;0.10;;;0.10;;
16654;SDS011;8441;51.344;7.022;2022-09-11T03:48:35;0.10;;;0.10;;
16654;SDS011;8441;51.344;7.022;2022-09-11T03:51:02;0.10;;;0.10;;
16654;SDS011;8441;51.344;7.022;2022-09-11T03:53:30;0.10;;;0.10;;
16654;SDS011;8441;51.344;7.022;2022-09-11T03:55:59;0.30;;;0.30;;
16654;SDS011;8441;51.344;7.022;2022-09-11T03:58:28;0.10;;;0.10;;
16654;SDS011;8441;51.344;7.022;2022-09-11T04:00:55;0.10;;;0.10;;
16654;SDS011;8441;51.344;7.022;2022-09-11T04:03:22;0.10;;;0.10;;
16654;SDS011;8441;51.344;7.022;2022-09-11T04:05:56;0.20;;;0.20;;
16654;SDS011;8441;51.344;7.022;2022-09-11T04:08:24;0.10;;;0.10;;
16654;SDS011;8441;51.344;7.022;2022-09-11T04:10:55;0.10;;;0.10;;
16654;SDS011;8441;51.344;7.022;2022-09-11T04:13:26;0.17;;;0.17;;
16654;SDS011;8441;51.344;7.022;2022-09-11T04:15:56;0.10;;;0.10;;
16654;SDS011;8441;51.344;7.022;2022-09-11T04:18:25;0.20;;;0.20;;
16654;SDS011;8441;51.344;7.022;2022-09-11T04:20:52;0.38;;;0.38;;
16654;SDS011;8441;51.344;7.022;2022-09-11T04:23:19;0.60;;;0.60;;
16654;SDS011;8441;51.344;7.022;2022-09-11T04:25:46;0.63;;;0.63;;
16654;SDS011;8441;51.344;7.022;2022-09-11T04:28:13;0.20;;;0.20;;
16654;SDS011;8441;51.344;7.022;2022-09-11T04:30:42;0.30;;;0.30;;
16654;SDS011;8441;51.344;7.022;2022-09-11T04:33:09;0.10;;;0.10;;
16654;SDS011;8441;51.344;7.022;2022-09-11T04:35:37;0.25;;;0.25;;
16654;SDS011;8441;51.344;7.022;2022-09-11T04:38:04;0.20;;;0.20;;
16654;SDS011;8441;51.344;7.022;2022-09-11T04:40:32;0.52;;;0.52;;
16654;SDS011;8441;51.344;7.022;2022-09-11T04:43:00;0.40;;;0.40;;
16654;SDS011;8441;51.344;7.022;2022-09-11T04:45:27;0.10;;;0.10;;
16654;SDS011;8441;51.344;7.022;2022-09-11T04:47:58;0.30;;;0.30;;
16654;SDS011;8441;51.344;7.022;2022-09-11T04:50:25;0.10;;;0.10;;
16654;SDS011;8441;51.344;7.022;2022-09-11T04:52:56;0.10;;;0.10;;
16654;SDS011;8441;51.344;7.022;2022-09-11T04:55:23;0.10;;;0.10;;
16654;SDS011;8441;51.344;7.022;2022-09-11T04:57:50;0.20;;;0.20;;
16654;SDS011;8441;51.344;7.022;2022-09-11T05:00:18;0.10;;;0.10;;
16654;SDS011;8441;51.344;7.022;2022-09-11T05:02:46;0.10;;;0.10;;
16654;SDS011;8441;51.344;7.022;2022-09-11T05:05:14;0.10;;;0.10;;
16654;SDS011;8441;51.344;7.022;2022-09-11T05:07:41;0.30;;;0.30;;
16654;SDS011;8441;51.344;7.022;2022-09-11T05:10:08;0.30;;;0.30;;
16654;SDS011;8441;51.344;7.022;2022-09-11T05:12:36;0.65;;;0.65;;
16654;SDS011;8441;51.344;7.022;2022-09-11T05:15:03;0.55;;;0.55;;
16654;SDS011;8441;51.344;7.022;2022-09-11T05:17:31;0.52;;;0.52;;
16654;SDS011;8441;51.344;7.022;2022-09-11T05:19:58;0.38;;;0.38;;
16654;SDS011;8441;51.344;7.022;2022-09-11T05:22:27;0.20;;;0.20;;
16654;SDS011;8441;51.344;7.022;2022-09-11T05:24:54;0.65;;;0.65;;
16654;SDS011;8441;51.344;7.022;2022-09-11T05:27:21;0.10;;;0.10;;
16654;SDS011;8441;51.344;7.022;2022-09-11T05:29:48;0.30;;;0.30;;
16654;SDS011;8441;51.344;7.022;2022-09-11T05:32:15;0.20;;;0.20;;
16654;SDS011;8441;51.344;7.022;2022-09-11T05:34:42;0.30;;;0.30;;
16654;SDS011;8441;51.344;7.022;2022-09-11T05:37:09;0.30;;;0.30;;
16654;SDS011;8441;51.344;7.022;2022-09-11T05:39:37;0.30;;;0.30;;
16654;SDS011;8441;51.344;7.022;2022-09-11T05:42:05;0.10;;;0.10;;
16654;SDS011;8441;51.344;7.022;2022-09-11T05:44:32;0.30;;;0.30;;
16654;SDS011;8441;51.344;7.022;2022-09-11T05:47:00;0.20;;;0.20;;
16654;SDS011;8441;51.344;7.022;2022-09-11T05:49:28;0.10;;;0.10;;
16654;SDS011;8441;51.344;7.022;2022-09-11T05:51:55;0.17;;;0.17;;
16654;SDS011;8441;51.344;7.022;2022-09-11T05:54:22;0.10;;;0.10;;
16654;SDS011;8441;51.344;7.022;2022-09-11T05:56:50;0.15;;;0.15;;
16654;SDS011;8441;51.344;7.022;2022-09-11T05:59:18;0.10;;;0.10;;
16654;SDS011;8441;51.344;7.022;2022-09-11T06:01:45;0.10;;;0.10;;
16654;SDS011;8441;51.344;7.022;2022-09-11T06:04:12;0.15;;;0.15;;
16654;SDS011;8441;51.344;7.022;2022-09-11T06:06:39;0.10;;;0.10;;
16654;SDS011;8441;51.344;7.022;2022-09-11T06:09:07;0.20;;;0.20;;
16654;SDS011;8441;51.344;7.022;2022-09-11T06:11:34;0.00;;;0.00;;
16654;SDS011;8441;51.344;7.022;2022-09-11T06:14:03;0.20;;;0.20;;
16654;SDS011;8441;51.344;7.022;2022-09-11T06:16:30;0.10;;;0.10;;
16654;SDS011;8441;51.344;7.022;2022-09-11T06:18:57;0.10;;;0.10;;
16654;SDS011;8441;51.344;7.022;2022-09-11T06:21:24;0.10;;;0.10;;
16654;SDS011;8441;51.344;7.022;2022-09-11T06:23:53;0.10;;;0.10;;
16654;SDS011;8441;51.344;7.022;2022-09-11T06:26:21;0.10;;;0.10;;
16654;SDS011;8441;51.344;7.022;2022-09-11T06:28:51;0.10;;;0.10;;
16654;SDS011;8441;51.344;7.022;2022-09-11T06:31:20;0.10;;;0.10;;
16654;SDS011;8441;51.344;7.022;2022-09-11T06:33:49;0.20;;;0.20;;
16654;SDS011;8441;51.344;7.022;2022-09-11T06:36:16;0.20;;;0.20;;
16654;SDS011;8441;51.344;7.022;2022-09-11T06:38:44;0.10;;;0.10;;
16654;SDS011;8441;51.344;7.022;2022-09-11T06:41:12;0.10;;;0.10;;
16654;SDS011;8441;51.344;7.022;2022-09-11T06:43:40;0.20;;;0.20;;
16654;SDS011;8441;51.344;7.022;2022-09-11T06:46:08;0.05;;;0.05;;
16654;SDS011;8441;51.344;7.022;2022-09-11T06:48:38;0.10;;;0.10;;
16654;SDS011;8441;51.344;7.022;2022-09-11T06:51:06;0.10;;;0.10;;
16654;SDS011;8441;51.344;7.022;2022-09-11T06:53:37;0.10;;;0.10;;
16654;SDS011;8441;51.344;7.022;2022-09-11T06:56:05;0.10;;;0.10;;
16654;SDS011;8441;51.344;7.022;2022-09-11T06:58:33;0.10;;;0.10;;
16654;SDS011;8441;51.344;7.022;2022-09-11T07:01:00;0.20;;;0.20;;
16654;SDS011;8441;51.344;7.022;2022-09-11T07:03:29;0.10;;;0.10;;
16654;SDS011;8441;51.344;7.022;2022-09-11T07:05:57;0.10;;;0.10;;
16654;SDS011;8441;51.344;7.022;2022-09-11T07:08:24;0.10;;;0.10;;
16654;SDS011;8441;51.344;7.022;2022-09-11T07:10:51;0.10;;;0.10;;
16654;SDS011;8441;51.344;7.022;2022-09-11T07:13:18;0.10;;;0.10;;
16654;SDS011;8441;51.344;7.022;2022-09-11T07:15:48;0.10;;;0.10;;
16654;SDS011;8441;51.344;7.022;2022-09-11T07:18:15;0.10;;;0.10;;
16654;SDS011;8441;51.344;7.022;2022-09-11T07:20:42;0.10;;;0.10;;
16654;SDS011;8441;51.344;7.022;2022-09-11T07:23:10;0.08;;;0.08;;
16654;SDS011;8441;51.344;7.022;2022-09-11T07:25:37;0.10;;;0.10;;
16654;SDS011;8441;51.344;7.022;2022-09-11T07:28:04;0.10;;;0.10;;
16654;SDS011;8441;51.344;7.022;2022-09-11T07:30:31;0.10;;;0.10;;
16654;SDS011;8441;51.344;7.022;2022-09-11T07:32:59;0.10;;;0.10;;
16654;SDS011;8441;51.344;7.022;2022-09-11T07:35:26;0.10;;;0.10;;
16654;SDS011;8441;51.344;7.022;2022-09-11T07:37:53;0.00;;;0.00;;
16654;SDS011;8441;51.344;7.022;2022-09-11T07:40:21;0.10;;;0.10;;
16654;SDS011;8441;51.344;7.022;2022-09-11T07:42:48;0.03;;;0.03;;
16654;SDS011;8441;51.344;7.022;2022-09-11T07:45:15;0.10;;;0.10;;
16654;SDS011;8441;51.344;7.022;2022-09-11T07:47:42;0.10;;;0.10;;
16654;SDS011;8441;51.344;7.022;2022-09-11T07:50:09;0.05;;;0.05;;
16654;SDS011;8441;51.344;7.022;2022-09-11T07:52:37;0.10;;;0.10;;
16654;SDS011;8441;51.344;7.022;2022-09-11T07:55:04;0.10;;;0.10;;
16654;SDS011;8441;51.344;7.022;2022-09-11T07:57:33;0.00;;;0.00;;
16654;SDS011;8441;51.344;7.022;2022-09-11T08:00:00;0.10;;;0.10;;
16654;SDS011;8441;51.344;7.022;2022-09-11T08:02:28;0.10;;;0.10;;
16654;SDS011;8441;51.344;7.022;2022-09-11T08:04:55;0.10;;;0.10;;
16654;SDS011;8441;51.344;7.022;2022-09-11T08:07:22;0.10;;;0.10;;
16654;SDS011;8441;51.344;7.022;2022-09-11T08:09:49;0.10;;;0.10;;
16654;SDS011;8441;51.344;7.022;2022-09-11T08:12:16;0.10;;;0.10;;
16654;SDS011;8441;51.344;7.022;2022-09-11T08:14:45;0.10;;;0.10;;
16654;SDS011;8441;51.344;7.022;2022-09-11T08:17:12;0.10;;;0.10;;
16654;SDS011;8441;51.344;7.022;2022-09-11T08:19:39;0.10;;;0.10;;
16654;SDS011;8441;51.344;7.022;2022-09-11T08:22:06;0.10;;;0.10;;
16654;SDS011;8441;51.344;7.022;2022-09-11T08:24:33;0.10;;;0.10;;
16654;SDS011;8441;51.344;7.022;2022-09-11T08:27:00;0.00;;;0.00;;
16654;SDS011;8441;51.344;7.022;2022-09-11T08:29:30;0.05;;;0.05;;
16654;SDS011;8441;51.344;7.022;2022-09-11T08:31:58;0.00;;;0.00;;
16654;SDS011;8441;51.344;7.022;2022-09-11T08:34:25;0.10;;;0.10;;
16654;SDS011;8441;51.344;7.022;2022-09-11T08:36:52;0.10;;;0.10;;
16654;SDS011;8441;51.344;7.022;2022-09-11T08:39:19;0.00;;;0.00;;
16654;SDS011;8441;51.344;7.022;2022-09-11T08:41:46;0.00;;;0.00;;
16654;SDS011;8441;51.344;7.022;2022-09-11T08:44:19;0.10;;;0.10;;
16654;SDS011;8441;51.344;7.022;2022-09-11T08:46:50;0.03;;;0.03;;
16654;SDS011;8441;51.344;7.022;2022-09-11T08:49:23;0.00;;;0.00;;
16654;SDS011;8441;51.344;7.022;2022-09-11T08:51:52;0.10;;;0.10;;
16654;SDS011;8441;51.344;7.022;2022-09-11T08:54:25;0.00;;;0.00;;
16654;SDS011;8441;51.344;7.022;2022-09-11T08:56:54;0.00;;;0.00;;
16654;SDS011;8441;51.344;7.022;2022-09-11T08:59:33;0.00;;;0.00;;
16654;SDS011;8441;51.344;7.022;2022-09-11T09:02:13;0.10;;;0.10;;
16654;SDS011;8441;51.344;7.022;2022-09-11T09:04:59;0.10;;;0.10;;
16654;SDS011;8441;51.344;7.022;2022-09-11T09:07:42;0.10;;;0.10;;
16654;SDS011;8441;51.344;7.022;2022-09-11T09:10:22;0.00;;;0.00;;
16654;SDS011;8441;51.344;7.022;2022-09-11T09:13:02;0.00;;;0.00;;
16654;SDS011;8441;51.344;7.022;2022-09-11T09:15:40;0.00;;;0.00;;
16654;SDS011;8441;51.344;7.022;2022-09-11T09:18:13;0.00;;;0.00;;
16654;SDS011;8441;51.344;7.022;2022-09-11T09:20:59;0.00;;;0.00;;
16654;SDS011;8441;51.344;7.022;2022-09-11T09:23:31;0.10;;;0.10;;
16654;SDS011;8441;51.344;7.022;2022-09-11T09:26:03;0.00;;;0.00;;
16654;SDS011;8441;51.344;7.022;2022-09-11T09:28:37;0.00;;;0.00;;
16654;SDS011;8441;51.344;7.022;2022-09-11T09:31:09;0.00;;;0.00;;
16654;SDS011;8441;51.344;7.022;2022-09-11T09:33:40;0.10;;;0.10;;
16654;SDS011;8441;51.344;7.022;2022-09-11T09:36:16;0.00;;;0.00;;
16654;SDS011;8441;51.344;7.022;2022-09-11T09:38:46;0.00;;;0.00;;
16654;SDS011;8441;51.344;7.022;2022-09-11T09:41:33;0.03;;;0.03;;
16654;SDS011;8441;51.344;7.022;2022-09-11T09:44:16;0.10;;;0.10;;
16654;SDS011;8441;51.344;7.022;2022-09-11T09:46:51;0.00;;;0.00;;
16654;SDS011;8441;51.344;7.022;2022-09-11T09:49:21;0.10;;;0.10;;
16654;SDS011;8441;51.344;7.022;2022-09-11T09:51:54;0.00;;;0.00;;
16654;SDS011;8441;51.344;7.022;2022-09-11T09:54:24;0.10;;;0.10;;
16654;SDS011;8441;51.344;7.022;2022-09-11T09:56:55;0.10;;;0.10;;
16654;SDS011;8441;51.344;7.022;2022-09-11T09:59:29;0.00;;;0.00;;
16654;SDS011;8441;51.344;7.022;2022-09-11T10:01:59;0.10;;;0.10;;
16654;SDS011;8441;51.344;7.022;2022-09-11T10:04:27;0.00;;;0.00;;
16654;SDS011;8441;51.344;7.022;2022-09-11T10:07:06;0.00;;;0.00;;
16654;SDS011;8441;51.344;7.022;2022-09-11T10:09:35;0.10;;;0.10;;
16654;SDS011;8441;51.344;7.022;2022-09-11T10:12:11;0.00;;;0.00;;
16654;SDS011;8441;51.344;7.022;2022-09-11T10:14:42;0.00;;;0.00;;
16654;SDS011;8441;51.344;7.022;2022-09-11T10:17:20;0.10;;;0.10;;
16654;SDS011;8441;51.344;7.022;2022-09-11T10:19:48;0.10;;;0.10;;
16654;SDS011;8441;51.344;7.022;2022-09-11T10:22:27;0.00;;;0.00;;
16654;SDS011;8441;51.344;7.022;2022-09-11T10:25:03;0.00;;;0.00;;
16654;SDS011;8441;51.344;7.022;2022-09-11T10:27:37;0.10;;;0.10;;
16654;SDS011;8441;51.344;7.022;2022-09-11T10:33:15;0.10;;;0.10;;
16654;SDS011;8441;51.344;7.022;2022-09-11T10:35:48;0.03;;;0.03;;
16654;SDS011;8441;51.344;7.022;2022-09-11T10:38:19;0.10;;;0.10;;
16654;SDS011;8441;51.344;7.022;2022-09-11T10:40:55;0.00;;;0.00;;
16654;SDS011;8441;51.344;7.022;2022-09-11T10:43:36;0.00;;;0.00;;
16654;SDS011;8441;51.344;7.022;2022-09-11T10:49:13;0.00;;;0.00;;
16654;SDS011;8441;51.344;7.022;2022-09-11T10:51:57;0.00;;;0.00;;
16654;SDS011;8441;51.344;7.022;2022-09-11T10:54:33;0.10;;;0.10;;
16654;SDS011;8441;51.344;7.022;2022-09-11T10:57:12;0.00;;;0.00;;
16654;SDS011;8441;51.344;7.022;2022-09-11T10:59:48;0.00;;;0.00;;
16654;SDS011;8441;51.344;7.022;2022-09-11T11:02:26;0.00;;;0.00;;
16654;SDS011;8441;51.344;7.022;2022-09-11T11:04:56;0.00;;;0.00;;
16654;SDS011;8441;51.344;7.022;2022-09-11T11:07:39;0.00;;;0.00;;
16654;SDS011;8441;51.344;7.022;2022-09-11T11:10:21;0.00;;;0.00;;
16654;SDS011;8441;51.344;7.022;2022-09-11T11:12:58;0.00;;;0.00;;
16654;SDS011;8441;51.344;7.022;2022-09-11T11:15:50;0.00;;;0.00;;
16654;SDS011;8441;51.344;7.022;2022-09-11T11:18:27;0.00;;;0.00;;
16654;SDS011;8441;51.344;7.022;2022-09-11T11:21:16;0.00;;;0.00;;
16654;SDS011;8441;51.344;7.022;2022-09-11T11:23:57;0.00;;;0.00;;
16654;SDS011;8441;51.344;7.022;2022-09-11T11:26:47;0.00;;;0.00;;
16654;SDS011;8441;51.344;7.022;2022-09-11T11:29:31;0.03;;;0.03;;
16654;SDS011;8441;51.344;7.022;2022-09-11T11:32:24;0.00;;;0.00;;
16654;SDS011;8441;51.344;7.022;2022-09-11T11:35:08;0.00;;;0.00;;
16654;SDS011;8441;51.344;7.022;2022-09-11T11:37:45;0.00;;;0.00;;
16654;SDS011;8441;51.344;7.022;2022-09-11T11:40:16;0.00;;;0.00;;
16654;SDS011;8441;51.344;7.022;2022-09-11T11:42:51;0.00;;;0.00;;
16654;SDS011;8441;51.344;7.022;2022-09-11T11:45:21;0.00;;;0.00;;
16654;SDS011;8441;51.344;7.022;2022-09-11T11:47:51;0.00;;;0.00;;
16654;SDS011;8441;51.344;7.022;2022-09-11T11:50:23;0.00;;;0.00;;
16654;SDS011;8441;51.344;7.022;2022-09-11T11:52:55;0.00;;;0.00;;
16654;SDS011;8441;51.344;7.022;2022-09-11T11:55:31;0.00;;;0.00;;
16654;SDS011;8441;51.344;7.022;2022-09-11T11:58:11;0.00;;;0.00;;
16654;SDS011;8441;51.344;7.022;2022-09-11T12:00:46;0.00;;;0.00;;
16654;SDS011;8441;51.344;7.022;2022-09-11T12:03:20;0.00;;;0.00;;
16654;SDS011;8441;51.344;7.022;2022-09-11T12:05:53;0.10;;;0.10;;
16654;SDS011;8441;51.344;7.022;2022-09-11T12:08:20;0.00;;;0.00;;
16654;SDS011;8441;51.344;7.022;2022-09-11T12:10:52;0.05;;;0.05;;
16654;SDS011;8441;51.344;7.022;2022-09-11T12:13:26;0.03;;;0.03;;
16654;SDS011;8441;51.344;7.022;2022-09-11T12:15:57;0.00;;;0.00;;
16654;SDS011;8441;51.344;7.022;2022-09-11T12:18:27;0.10;;;0.10;;
16654;SDS011;8441;51.344;7.022;2022-09-11T12:24:08;0.10;;;0.10;;
16654;SDS011;8441;51.344;7.022;2022-09-11T12:26:39;0.00;;;0.00;;
16654;SDS011;8441;51.344;7.022;2022-09-11T12:32:21;0.10;;;0.10;;
16654;SDS011;8441;51.344;7.022;2022-09-11T12:34:56;0.00;;;0.00;;
16654;SDS011;8441;51.344;7.022;2022-09-11T12:37:36;0.00;;;0.00;;
16654;SDS011;8441;51.344;7.022;2022-09-11T12:40:05;0.10;;;0.10;;
16654;SDS011;8441;51.344;7.022;2022-09-11T12:42:54;0.03;;;0.03;;
16654;SDS011;8441;51.344;7.022;2022-09-11T12:45:30;0.00;;;0.00;;
16654;SDS011;8441;51.344;7.022;2022-09-11T12:48:08;0.00;;;0.00;;
16654;SDS011;8441;51.344;7.022;2022-09-11T12:50:36;0.00;;;0.00;;
16654;SDS011;8441;51.344;7.022;2022-09-11T12:53:05;0.00;;;0.00;;
16654;SDS011;8441;51.344;7.022;2022-09-11T12:55:41;0.00;;;0.00;;
16654;SDS011;8441;51.344;7.022;2022-09-11T12:58:23;0.00;;;0.00;;
16654;SDS011;8441;51.344;7.022;2022-09-11T13:01:14;0.00;;;0.00;;
16654;SDS011;8441;51.344;7.022;2022-09-11T13:03:57;0.00;;;0.00;;
16654;SDS011;8441;51.344;7.022;2022-09-11T13:06:34;0.00;;;0.00;;
16654;SDS011;8441;51.344;7.022;2022-09-11T13:09:05;0.00;;;0.00;;
16654;SDS011;8441;51.344;7.022;2022-09-11T13:11:42;0.00;;;0.00;;
16654;SDS011;8441;51.344;7.022;2022-09-11T13:17:14;0.00;;;0.00;;
16654;SDS011;8441;51.344;7.022;2022-09-11T13:19:51;0.00;;;0.00;;
16654;SDS011;8441;51.344;7.022;2022-09-11T13:22:22;0.00;;;0.00;;
16654;SDS011;8441;51.344;7.022;2022-09-11T13:25:02;0.00;;;0.00;;
16654;SDS011;8441;51.344;7.022;2022-09-11T13:27:31;0.00;;;0.00;;
16654;SDS011;8441;51.344;7.022;2022-09-11T13:30:03;0.00;;;0.00;;
16654;SDS011;8441;51.344;7.022;2022-09-11T13:32:32;0.00;;;0.00;;
16654;SDS011;8441;51.344;7.022;2022-09-11T13:35:04;0.00;;;0.00;;
16654;SDS011;8441;51.344;7.022;2022-09-11T13:37:37;0.00;;;0.00;;
16654;SDS011;8441;51.344;7.022;2022-09-11T13:40:13;0.10;;;0.10;;
16654;SDS011;8441;51.344;7.022;2022-09-11T13:42:45;0.10;;;0.10;;
16654;SDS011;8441;51.344;7.022;2022-09-11T13:45:14;0.00;;;0.00;;
16654;SDS011;8441;51.344;7.022;2022-09-11T13:47:43;0.00;;;0.00;;
16654;SDS011;8441;51.344;7.022;2022-09-11T13:50:12;0.10;;;0.10;;
16654;SDS011;8441;51.344;7.022;2022-09-11T13:52:42;0.00;;;0.00;;
16654;SDS011;8441;51.344;7.022;2022-09-11T13:55:13;0.10;;;0.10;;
16654;SDS011;8441;51.344;7.022;2022-09-11T13:57:50;0.00;;;0.00;;
16654;SDS011;8441;51.344;7.022;2022-09-11T14:00:34;0.00;;;0.00;;
16654;SDS011;8441;51.344;7.022;2022-09-11T14:03:04;0.00;;;0.00;;
16654;SDS011;8441;51.344;7.022;2022-09-11T14:05:33;0.00;;;0.00;;
16654;SDS011;8441;51.344;7.022;2022-09-11T14:08:01;0.00;;;0.00;;
16654;SDS011;8441;51.344;7.022;2022-09-11T14:10:32;0.00;;;0.00;;
16654;SDS011;8441;51.344;7.022;2022-09-11T14:13:10;0.08;;;0.08;;
16654;SDS011;8441;51.344;7.022;2022-09-11T14:15:40;0.00;;;0.00;;
16654;SDS011;8441;51.344;7.022;2022-09-11T14:18:16;0.00;;;0.00;;
16654;SDS011;8441;51.344;7.022;2022-09-11T14:20:53;0.00;;;0.00;;
16654;SDS011;8441;51.344;7.022;2022-09-11T14:23:24;0.00;;;0.00;;
16654;SDS011;8441;51.344;7.022;2022-09-11T14:26:05;0.10;;;0.10;;
16654;SDS011;8441;51.344;7.022;2022-09-11T14:28:45;0.00;;;0.00;;
16654;SDS011;8441;51.344;7.022;2022-09-11T14:31:26;0.00;;;0.00;;
16654;SDS011;8441;51.344;7.022;2022-09-11T14:34:08;0.00;;;0.00;;
16654;SDS011;8441;51.344;7.022;2022-09-11T14:36:41;0.10;;;0.10;;
16654;SDS011;8441;51.344;7.022;2022-09-11T14:39:12;0.00;;;0.00;;
16654;SDS011;8441;51.344;7.022;2022-09-11T14:41:43;0.00;;;0.00;;
16654;SDS011;8441;51.344;7.022;2022-09-11T14:44:12;0.00;;;0.00;;
16654;SDS011;8441;51.344;7.022;2022-09-11T14:46:40;0.00;;;0.00;;
16654;SDS011;8441;51.344;7.022;2022-09-11T14:49:07;0.00;;;0.00;;
16654;SDS011;8441;51.344;7.022;2022-09-11T14:51:35;0.00;;;0.00;;
16654;SDS011;8441;51.344;7.022;2022-09-11T14:54:04;0.00;;;0.00;;
16654;SDS011;8441;51.344;7.022;2022-09-11T14:56:31;0.00;;;0.00;;
16654;SDS011;8441;51.344;7.022;2022-09-11T14:58:58;0.10;;;0.10;;
16654;SDS011;8441;51.344;7.022;2022-09-11T15:01:25;0.00;;;0.00;;
16654;SDS011;8441;51.344;7.022;2022-09-11T15:03:54;0.00;;;0.00;;
16654;SDS011;8441;51.344;7.022;2022-09-11T15:06:21;0.00;;;0.00;;
16654;SDS011;8441;51.344;7.022;2022-09-11T15:08:49;0.10;;;0.10;;
16654;SDS011;8441;51.344;7.022;2022-09-11T15:11:18;0.00;;;0.00;;
16654;SDS011;8441;51.344;7.022;2022-09-11T15:13:45;0.00;;;0.00;;
16654;SDS011;8441;51.344;7.022;2022-09-11T15:16:12;0.00;;;0.00;;
16654;SDS011;8441;51.344;7.022;2022-09-11T15:18:40;0.00;;;0.00;;
16654;SDS011;8441;51.344;7.022;2022-09-11T15:21:09;0.00;;;0.00;;
16654;SDS011;8441;51.344;7.022;2022-09-11T15:23:36;0.00;;;0.00;;
16654;SDS011;8441;51.344;7.022;2022-09-11T15:26:03;0.10;;;0.10;;
16654;SDS011;8441;51.344;7.022;2022-09-11T15:28:33;0.00;;;0.00;;
16654;SDS011;8441;51.344;7.022;2022-09-11T15:31:01;0.00;;;0.00;;
16654;SDS011;8441;51.344;7.022;2022-09-11T15:33:29;0.00;;;0.00;;
16654;SDS011;8441;51.344;7.022;2022-09-11T15:35:59;0.00;;;0.00;;
16654;SDS011;8441;51.344;7.022;2022-09-11T15:38:27;0.00;;;0.00;;
16654;SDS011;8441;51.344;7.022;2022-09-11T15:40:54;0.00;;;0.00;;